createdAt,value
2023-03-05T00:00:02.001Z,102189.28
2023-03-05T00:02:29.804Z,102205.16
2023-03-05T00:04:57.629Z,102205.81
2023-03-05T00:07:25.345Z,102196.94
2023-03-05T00:09:53.112Z,102200.47
2023-03-05T00:12:22.283Z,102202.13
2023-03-05T00:14:50.072Z,102197.28
2023-03-05T00:17:17.843Z,102187.44
2023-03-05T00:19:45.599Z,102199.78
2023-03-05T00:22:13.306Z,102202.47
2023-03-05T00:24:40.988Z,102196.28
2023-03-05T00:27:08.725Z,102201.63
2023-03-05T00:29:37.801Z,102200.81
2023-03-05T00:32:05.799Z,102196.47
2023-03-05T00:34:33.560Z,102193.78
2023-03-05T00:37:01.257Z,102186.75
2023-03-05T00:39:29.063Z,102183.06
2023-03-05T00:41:56.900Z,102191.94
2023-03-05T00:44:24.637Z,102185.59
2023-03-05T00:46:53.806Z,102183.91
2023-03-05T00:49:21.640Z,102172.38
2023-03-05T00:51:49.601Z,102173.03
2023-03-05T00:54:17.380Z,102169.53
2023-03-05T00:56:45.141Z,102164.34
2023-03-05T00:59:12.927Z,102158.81
2023-03-05T01:01:40.919Z,102163.16
2023-03-05T01:04:10.579Z,102167.69
2023-03-05T01:06:42.659Z,102161.50
2023-03-05T01:09:10.404Z,102166.00
2023-03-05T01:11:38.379Z,102157.31
2023-03-05T01:14:06.137Z,102160.00
2023-03-05T01:16:33.953Z,102152.16
2023-03-05T01:19:01.698Z,102149.31
2023-03-05T01:21:30.792Z,102140.59
2023-03-05T01:23:58.869Z,102137.09
2023-03-05T01:26:26.594Z,102139.78
2023-03-05T01:28:54.307Z,102138.94
2023-03-05T01:31:22.498Z,102132.25
2023-03-05T01:33:52.991Z,102128.56
2023-03-05T01:36:20.998Z,102129.41
2023-03-05T01:38:50.051Z,102124.91
2023-03-05T01:41:19.417Z,102109.88
2023-03-05T01:43:48.563Z,102114.38
2023-03-05T01:46:26.473Z,102116.88
2023-03-05T01:48:58.533Z,102107.19
2023-03-05T01:51:29.209Z,102110.69
2023-03-05T01:54:00.101Z,102112.53
2023-03-05T01:56:30.146Z,102101.16
2023-03-05T01:59:03.499Z,102089.47
2023-03-05T02:01:40.464Z,102100.31
2023-03-05T02:04:10.321Z,102085.28
2023-03-05T02:06:39.638Z,102080.09
2023-03-05T02:09:08.780Z,102078.44
2023-03-05T02:11:37.457Z,102061.56
2023-03-05T02:14:08.434Z,102060.75
2023-03-05T02:16:39.132Z,102062.22
2023-03-05T02:19:09.730Z,102068.91
2023-03-05T02:21:41.628Z,102067.91
2023-03-05T02:24:12.892Z,102068.75
2023-03-05T02:26:40.698Z,102056.19
2023-03-05T02:29:10.521Z,102052.03
2023-03-05T02:31:39.020Z,102054.34
2023-03-05T02:34:07.489Z,102053.19
2023-03-05T02:36:35.196Z,102061.19
2023-03-05T02:39:04.421Z,102048.84
2023-03-05T02:41:32.138Z,102047.16
2023-03-05T02:43:59.818Z,102041.81
2023-03-05T02:46:27.569Z,102037.31
2023-03-05T02:48:55.306Z,102039.81
2023-03-05T02:51:23.021Z,102036.13
2023-03-05T02:53:50.763Z,102037.13
2023-03-05T02:56:20.162Z,102026.44
2023-03-05T02:58:47.870Z,102034.63
2023-03-05T03:01:15.659Z,102024.94
2023-03-05T03:03:43.360Z,102008.06
2023-03-05T03:06:11.060Z,102015.25
2023-03-05T03:08:38.866Z,102011.56
2023-03-05T03:11:08.116Z,102011.56
2023-03-05T03:13:37.408Z,102010.72
2023-03-05T03:16:06.703Z,102002.88
2023-03-05T03:18:34.416Z,102003.72
2023-03-05T03:21:02.232Z,102005.72
2023-03-05T03:23:30.267Z,101991.69
2023-03-05T03:25:58.837Z,101989.69
2023-03-05T03:28:27.020Z,101991.84
2023-03-05T03:30:56.227Z,101994.34
2023-03-05T03:33:23.991Z,101989.84
2023-03-05T03:35:51.809Z,101997.03
2023-03-05T03:38:19.768Z,101981.34
2023-03-05T03:40:47.461Z,101974.97
2023-03-05T03:43:15.206Z,101980.31
2023-03-05T03:45:43.992Z,101968.97
2023-03-05T03:48:13.318Z,101968.13
2023-03-05T03:50:41.132Z,101964.28
2023-03-05T03:53:09.493Z,101963.44
2023-03-05T03:55:37.227Z,101953.56
2023-03-05T03:58:05.076Z,101951.06
2023-03-05T04:00:32.914Z,101943.88
2023-03-05T04:03:00.668Z,101941.22
2023-03-05T04:05:29.751Z,101938.53
2023-03-05T04:07:58.444Z,101932.53
2023-03-05T04:10:26.225Z,101940.56
2023-03-05T04:12:53.936Z,101939.91
2023-03-05T04:15:22.025Z,101938.22
2023-03-05T04:17:49.838Z,101930.38
2023-03-05T04:20:18.195Z,101933.06
2023-03-05T04:22:47.260Z,101942.09
2023-03-05T04:25:15.003Z,101934.91
2023-03-05T04:27:42.720Z,101931.38
2023-03-05T04:30:14.695Z,101926.03
2023-03-05T04:32:42.511Z,101928.88
2023-03-05T04:35:10.760Z,101920.22
2023-03-05T04:37:38.527Z,101916.03
2023-03-05T04:40:09.359Z,101915.88
2023-03-05T04:42:37.008Z,101914.03
2023-03-05T04:45:06.730Z,101914.19
2023-03-05T04:47:34.931Z,101914.19
2023-03-05T04:50:03.621Z,101914.19
2023-03-05T04:52:31.444Z,101916.03
2023-03-05T04:54:59.225Z,101912.53
2023-03-05T04:57:28.325Z,101912.53
2023-03-05T04:59:56.073Z,101907.00
2023-03-05T05:02:23.793Z,101900.81
2023-03-05T05:04:53.580Z,101902.66
2023-03-05T05:07:21.552Z,101901.66
2023-03-05T05:09:49.223Z,101900.00
2023-03-05T05:12:17.188Z,101892.81
2023-03-05T05:14:46.471Z,101895.47
2023-03-05T05:17:14.249Z,101901.66
2023-03-05T05:19:42.087Z,101890.97
2023-03-05T05:22:09.959Z,101891.97
2023-03-05T05:24:37.654Z,101882.28
2023-03-05T05:27:05.739Z,101880.63
2023-03-05T05:29:33.464Z,101882.28
2023-03-05T05:32:02.617Z,101874.25
2023-03-05T05:34:30.410Z,101875.28
2023-03-05T05:36:58.236Z,101876.28
2023-03-05T05:39:25.978Z,101876.28
2023-03-05T05:41:54.151Z,101868.09
2023-03-05T05:44:21.959Z,101872.59
2023-03-05T05:46:49.756Z,101878.94
2023-03-05T05:49:19.080Z,101869.78
2023-03-05T05:51:46.859Z,101875.63
2023-03-05T05:54:15.082Z,101876.44
2023-03-05T05:56:43.351Z,101881.97
2023-03-05T05:59:11.654Z,101871.28
2023-03-05T06:01:39.438Z,101863.44
2023-03-05T06:04:07.196Z,101869.41
2023-03-05T06:06:36.294Z,101861.28
2023-03-05T06:09:04.640Z,101852.13
2023-03-05T06:11:34.008Z,101848.50
2023-03-05T06:14:02.920Z,101846.81
2023-03-05T06:16:31.238Z,101839.47
2023-03-05T06:19:00.072Z,101852.91
2023-03-05T06:21:27.759Z,101848.75
2023-03-05T06:23:58.628Z,101839.94
2023-03-05T06:26:26.793Z,101849.44
2023-03-05T06:28:55.341Z,101844.50
2023-03-05T06:31:26.319Z,101835.06
2023-03-05T06:33:55.640Z,101844.16
2023-03-05T06:36:26.032Z,101843.22
2023-03-05T06:38:54.532Z,101831.56
2023-03-05T06:41:25.380Z,101839.28
2023-03-05T06:43:53.322Z,101842.31
2023-03-05T06:46:23.000Z,101843.69
2023-03-05T06:48:51.904Z,101840.34
2023-03-05T06:51:22.271Z,101849.75
2023-03-05T06:53:50.559Z,101849.09
2023-03-05T06:56:19.005Z,101848.78
2023-03-05T06:58:50.578Z,101842.59
2023-03-05T07:01:18.986Z,101839.16
2023-03-05T07:03:49.572Z,101843.66
2023-03-05T07:06:17.413Z,101827.66
2023-03-05T07:08:45.804Z,101844.84
2023-03-05T07:11:15.200Z,101851.03
2023-03-05T07:13:43.624Z,101846.03
2023-03-05T07:16:17.477Z,101848.06
2023-03-05T07:18:45.758Z,101846.56
2023-03-05T07:21:17.021Z,101842.03
2023-03-05T07:23:44.749Z,101841.22
2023-03-05T07:26:13.190Z,101838.72
2023-03-05T07:28:41.906Z,101836.03
2023-03-05T07:31:15.826Z,101823.50
2023-03-05T07:33:43.617Z,101827.94
2023-03-05T07:36:12.730Z,101825.16
2023-03-05T07:38:40.827Z,101820.50
2023-03-05T07:41:11.236Z,101825.38
2023-03-05T07:43:39.713Z,101821.53
2023-03-05T07:46:08.974Z,101826.19
2023-03-05T07:48:38.617Z,101826.50
2023-03-05T07:51:08.406Z,101827.53
2023-03-05T07:53:36.142Z,101818.53
2023-03-05T07:56:04.214Z,101819.50
2023-03-05T07:58:31.976Z,101810.44
2023-03-05T08:00:59.683Z,101813.09
2023-03-05T08:03:27.530Z,101812.88
2023-03-05T08:05:56.671Z,101808.81
2023-03-05T08:08:24.400Z,101808.22
2023-03-05T08:10:52.144Z,101810.97
2023-03-05T08:13:19.869Z,101812.53
2023-03-05T08:15:47.649Z,101811.41
2023-03-05T08:18:18.624Z,101814.63
2023-03-05T08:20:46.322Z,101813.13
2023-03-05T08:23:15.520Z,101812.84
2023-03-05T08:25:43.321Z,101810.69
2023-03-05T08:28:11.050Z,101802.19
2023-03-05T08:30:41.252Z,101804.22
2023-03-05T08:33:08.944Z,101800.88
2023-03-05T08:35:36.707Z,101802.91
2023-03-05T08:38:04.639Z,101796.91
2023-03-05T08:40:34.593Z,101791.75
2023-03-05T08:43:02.317Z,101786.56
2023-03-05T08:45:30.062Z,101784.25
2023-03-05T08:47:57.817Z,101779.25
2023-03-05T08:50:26.025Z,101781.44
2023-03-05T08:52:53.754Z,101765.59
2023-03-05T08:55:21.470Z,101770.75
2023-03-05T08:57:50.534Z,101768.25
2023-03-05T09:00:18.950Z,101773.78
2023-03-05T09:02:46.655Z,101768.63
2023-03-05T09:05:14.787Z,101765.94
2023-03-05T09:07:42.572Z,101768.44
2023-03-05T09:10:13.673Z,101761.44
2023-03-05T09:12:41.520Z,101767.97
2023-03-05T09:15:12.881Z,101764.63
2023-03-05T09:17:41.983Z,101754.66
2023-03-05T09:20:14.115Z,101757.16
2023-03-05T09:22:41.861Z,101754.13
2023-03-05T09:25:12.621Z,101753.09
2023-03-05T09:27:40.505Z,101743.59
2023-03-05T09:30:12.805Z,101745.44
2023-03-05T09:32:40.869Z,101749.97
2023-03-05T09:35:09.827Z,101743.59
2023-03-05T09:37:37.699Z,101733.75
2023-03-05T09:40:06.095Z,101736.22
2023-03-05T09:43:05.085Z,101729.22
2023-03-05T09:45:41.209Z,101733.75
2023-03-05T09:48:18.345Z,101735.03
2023-03-05T09:50:50.577Z,101725.53
2023-03-05T09:53:34.939Z,101727.66
2023-03-05T09:56:11.495Z,101730.81
2023-03-05T09:58:42.010Z,101727.50
2023-03-05T10:01:14.533Z,101716.81
2023-03-05T10:03:53.146Z,101719.28
2023-03-05T10:06:24.541Z,101713.13
2023-03-05T10:08:58.804Z,101723.16
2023-03-05T10:11:38.778Z,101719.84
2023-03-05T10:14:07.834Z,101714.31
2023-03-05T10:16:53.978Z,101705.28
2023-03-05T10:19:36.331Z,101703.91
2023-03-05T10:22:17.011Z,101697.94
2023-03-05T10:24:58.200Z,101707.19
2023-03-05T10:27:39.729Z,101702.25
2023-03-05T10:30:24.621Z,101695.34
2023-03-05T10:33:00.805Z,101688.97
2023-03-05T10:35:53.835Z,101684.25
2023-03-05T10:38:38.239Z,101673.19
2023-03-05T10:41:14.872Z,101675.78
2023-03-05T10:43:52.379Z,101677.03
2023-03-05T10:46:23.740Z,101673.81
2023-03-05T10:48:56.562Z,101672.06
2023-03-05T10:51:34.444Z,101671.34
2023-03-05T10:54:10.956Z,101666.06
2023-03-05T10:56:38.734Z,101665.63
2023-03-05T10:59:06.442Z,101669.66
2023-03-05T11:01:34.416Z,101663.84
2023-03-05T11:04:04.641Z,101654.72
2023-03-05T11:06:35.652Z,101674.53
2023-03-05T11:09:19.082Z,101674.34
2023-03-05T11:12:04.337Z,101676.81
2023-03-05T11:14:34.146Z,101667.84
2023-03-05T11:17:03.091Z,101667.47
2023-03-05T11:19:33.089Z,101656.78
2023-03-05T11:22:15.996Z,101655.94
2023-03-05T11:24:43.790Z,101647.75
2023-03-05T11:27:27.259Z,101655.41
2023-03-05T11:29:55.092Z,101645.53
2023-03-05T11:32:25.529Z,101649.22
2023-03-05T11:34:55.719Z,101643.88
2023-03-05T11:37:26.211Z,101647.19
2023-03-05T11:40:21.583Z,101639.81
2023-03-05T11:42:56.477Z,101635.13
2023-03-05T11:45:26.641Z,101634.94
2023-03-05T11:47:56.573Z,101624.25
2023-03-05T11:50:27.797Z,101621.38
2023-03-05T11:52:58.554Z,101607.84
2023-03-05T11:55:31.506Z,101605.16
2023-03-05T11:58:13.930Z,101595.94
2023-03-05T12:00:45.746Z,101601.28
2023-03-05T12:03:17.300Z,101590.41
2023-03-05T12:05:51.468Z,101568.44
2023-03-05T12:08:25.557Z,101581.53
2023-03-05T12:10:53.794Z,101577.84
2023-03-05T12:13:28.940Z,101569.00
2023-03-05T12:16:10.053Z,101566.97
2023-03-05T12:18:48.982Z,101563.47
2023-03-05T12:21:27.841Z,101558.13
2023-03-05T12:24:01.337Z,101555.44
2023-03-05T12:27:06.477Z,101548.25
2023-03-05T12:29:41.214Z,101533.78
2023-03-05T12:32:42.065Z,101537.19
2023-03-05T12:35:23.637Z,101542.34
2023-03-05T12:38:26.424Z,101538.28
2023-03-05T12:41:15.048Z,101524.50
2023-03-05T12:43:43.135Z,101516.34
2023-03-05T12:46:29.127Z,101511.19
2023-03-05T12:48:56.897Z,101508.44
2023-03-05T12:51:37.777Z,101509.91
2023-03-05T12:54:30.007Z,101505.28
2023-03-05T12:56:59.794Z,101500.50
2023-03-05T12:59:36.175Z,101492.19
2023-03-05T13:02:16.705Z,101495.44
2023-03-05T13:04:47.131Z,101479.94
2023-03-05T13:07:17.057Z,101480.97
2023-03-05T13:09:55.118Z,101471.66
2023-03-05T13:12:24.479Z,101473.50
2023-03-05T13:15:00.043Z,101469.56
2023-03-05T13:17:34.614Z,101463.38
2023-03-05T13:20:06.071Z,101460.31
2023-03-05T13:22:34.173Z,101451.66
2023-03-05T13:25:14.367Z,101452.09
2023-03-05T13:27:42.619Z,101445.91
2023-03-05T13:30:29.372Z,101450.25
2023-03-05T13:33:02.929Z,101442.22
2023-03-05T13:35:31.020Z,101443.44
2023-03-05T13:37:59.090Z,101438.25
2023-03-05T13:40:30.273Z,101434.75
2023-03-05T13:43:10.407Z,101434.75
2023-03-05T13:45:39.984Z,101432.06
2023-03-05T13:48:08.584Z,101436.59
2023-03-05T13:50:38.782Z,101432.06
2023-03-05T13:53:25.535Z,101424.69
2023-03-05T13:55:57.624Z,101418.31
2023-03-05T13:58:48.057Z,101410.28
2023-03-05T14:01:26.684Z,101411.31
2023-03-05T14:03:57.273Z,101400.78
2023-03-05T14:06:28.802Z,101394.16
2023-03-05T14:09:05.176Z,101399.13
2023-03-05T14:11:35.354Z,101396.44
2023-03-05T14:14:10.761Z,101390.28
2023-03-05T14:16:38.509Z,101388.63
2023-03-05T14:19:09.204Z,101386.75
2023-03-05T14:21:48.148Z,101377.72
2023-03-05T14:24:22.703Z,101385.75
2023-03-05T14:26:56.510Z,101374.41
2023-03-05T14:29:26.124Z,101364.09
2023-03-05T14:31:56.638Z,101368.41
2023-03-05T14:34:29.202Z,101364.09
2023-03-05T14:37:00.854Z,101361.41
2023-03-05T14:39:46.574Z,101358.72
2023-03-05T14:42:38.442Z,101349.88
2023-03-05T14:45:13.600Z,101349.88
2023-03-05T14:47:41.606Z,101349.88
2023-03-05T14:50:11.597Z,101346.38
2023-03-05T14:52:39.424Z,101345.34
2023-03-05T14:55:07.983Z,101333.81
2023-03-05T14:57:37.294Z,101327.31
2023-03-05T15:00:05.905Z,101328.88
2023-03-05T15:02:33.632Z,101324.72
2023-03-05T15:05:01.405Z,101320.69
2023-03-05T15:07:32.586Z,101310.06
2023-03-05T15:10:00.774Z,101309.13
2023-03-05T15:12:28.692Z,101310.41
2023-03-05T15:14:57.991Z,101302.00
2023-03-05T15:17:31.508Z,101307.84
2023-03-05T15:19:59.237Z,101290.50
2023-03-05T15:22:26.990Z,101302.72
2023-03-05T15:24:54.679Z,101295.28
2023-03-05T15:27:22.404Z,101289.91
2023-03-05T15:29:50.169Z,101284.97
2023-03-05T15:32:19.338Z,101292.19
2023-03-05T15:34:47.097Z,101281.22
2023-03-05T15:37:14.845Z,101272.97
2023-03-05T15:39:42.599Z,101266.34
2023-03-05T15:42:10.335Z,101267.81
2023-03-05T15:44:39.987Z,101256.44
2023-03-05T15:47:07.848Z,101252.09
2023-03-05T15:49:37.091Z,101258.94
2023-03-05T15:52:04.861Z,101261.63
2023-03-05T15:54:32.783Z,101240.31
2023-03-05T15:57:00.500Z,101243.41
2023-03-05T15:59:28.463Z,101245.72
2023-03-05T16:01:56.175Z,101248.41
2023-03-05T16:04:23.946Z,101243.25
2023-03-05T16:06:53.579Z,101238.47
2023-03-05T16:09:22.641Z,101227.13
2023-03-05T16:11:51.558Z,101226.06
2023-03-05T16:14:23.774Z,101220.03
2023-03-05T16:16:53.952Z,101221.28
2023-03-05T16:19:22.715Z,101219.59
2023-03-05T16:21:50.406Z,101218.34
2023-03-05T16:24:19.490Z,101216.06
2023-03-05T16:26:47.307Z,101214.81
2023-03-05T16:29:15.220Z,101207.38
2023-03-05T16:31:45.288Z,101209.25
2023-03-05T16:34:14.176Z,101209.44
2023-03-05T16:36:47.591Z,101202.00
2023-03-05T16:39:15.793Z,101202.63
2023-03-05T16:41:44.904Z,101203.44
2023-03-05T16:44:12.849Z,101194.97
2023-03-05T16:46:42.094Z,101194.34
2023-03-05T16:49:10.051Z,101191.88
2023-03-05T16:51:37.823Z,101180.50
2023-03-05T16:54:05.604Z,101192.47
2023-03-05T16:56:33.356Z,101187.94
2023-03-05T16:59:02.379Z,101179.28
2023-03-05T17:01:30.326Z,101188.16
2023-03-05T17:03:59.715Z,101187.78
2023-03-05T17:06:29.958Z,101194.59
2023-03-05T17:08:58.692Z,101194.41
2023-03-05T17:11:26.692Z,101193.44
2023-03-05T17:13:54.507Z,101200.25
2023-03-05T17:16:24.073Z,101188.13
2023-03-05T17:18:51.961Z,101188.34
2023-03-05T17:21:19.654Z,101181.72
2023-03-05T17:23:47.420Z,101189.56
2023-03-05T17:26:17.646Z,101176.53
2023-03-05T17:28:46.495Z,101184.56
2023-03-05T17:31:15.191Z,101180.63
2023-03-05T17:33:44.719Z,101182.25
2023-03-05T17:36:16.692Z,101177.94
2023-03-05T17:38:45.086Z,101182.06
2023-03-05T17:41:12.870Z,101182.69
2023-03-05T17:43:40.932Z,101174.41
2023-03-05T17:46:09.356Z,101176.47
2023-03-05T17:48:39.129Z,101181.81
2023-03-05T17:51:09.253Z,101181.41
2023-03-05T17:53:38.906Z,101173.72
2023-03-05T17:56:08.530Z,101182.84
2023-03-05T17:58:36.467Z,101185.53
2023-03-05T18:01:04.952Z,101184.72
2023-03-05T18:03:32.781Z,101184.47
2023-03-05T18:06:00.594Z,101183.44
2023-03-05T18:08:29.671Z,101178.88
2023-03-05T18:10:57.421Z,101171.03
2023-03-05T18:13:25.311Z,101174.41
2023-03-05T18:15:53.112Z,101176.69
2023-03-05T18:18:20.894Z,101174.88
2023-03-05T18:20:48.755Z,101173.47
2023-03-05T18:23:20.612Z,101172.44
2023-03-05T18:25:50.478Z,101168.13
2023-03-05T18:28:18.949Z,101168.53
2023-03-05T18:30:48.150Z,101161.69
2023-03-05T18:33:19.989Z,101164.38
2023-03-05T18:35:51.917Z,101156.53
2023-03-05T18:38:20.296Z,101154.47
2023-03-05T18:40:51.237Z,101158.41
2023-03-05T18:43:20.719Z,101154.06
2023-03-05T18:45:49.059Z,101152.03
2023-03-05T18:48:16.827Z,101140.47
2023-03-05T18:50:44.830Z,101147.88
2023-03-05T18:53:13.841Z,101139.16
2023-03-05T18:55:42.821Z,101137.25
2023-03-05T18:58:14.080Z,101137.84
2023-03-05T19:00:44.867Z,101128.75
2023-03-05T19:03:12.798Z,101134.97
2023-03-05T19:05:40.816Z,101135.00
2023-03-05T19:08:09.397Z,101143.31
2023-03-05T19:10:37.591Z,101128.47
2023-03-05T19:13:43.001Z,101134.88
2023-03-05T19:16:13.512Z,101134.47
2023-03-05T19:19:20.284Z,101126.84
2023-03-05T19:21:50.834Z,101133.22
2023-03-05T19:24:18.786Z,101127.25
2023-03-05T19:26:47.955Z,101118.59
2023-03-05T19:29:17.407Z,101118.78
2023-03-05T19:31:45.112Z,101117.94
2023-03-05T19:34:13.122Z,101109.09
2023-03-05T19:36:40.853Z,101115.06
2023-03-05T19:39:09.337Z,101103.09
2023-03-05T19:41:38.326Z,101105.34
2023-03-05T19:44:06.766Z,101099.16
2023-03-05T19:46:36.219Z,101089.50
2023-03-05T19:49:04.541Z,101090.13
2023-03-05T19:51:32.311Z,101098.38
2023-03-05T19:54:00.116Z,101095.88
2023-03-05T19:56:28.017Z,101089.66
2023-03-05T19:58:55.884Z,101083.03
2023-03-05T20:01:25.995Z,101090.63
2023-03-05T20:03:57.274Z,101086.25
2023-03-05T20:06:26.444Z,101081.34
2023-03-05T20:08:55.678Z,101082.63
2023-03-05T20:11:24.538Z,101076.25
2023-03-05T20:13:53.479Z,101075.25
2023-03-05T20:16:25.152Z,101075.28
2023-03-05T20:18:55.580Z,101074.25
2023-03-05T20:21:25.644Z,101074.44
2023-03-05T20:23:55.860Z,101069.09
2023-03-05T20:26:25.780Z,101071.97
2023-03-05T20:28:54.357Z,101059.59
2023-03-05T20:31:23.284Z,101051.34
2023-03-05T20:33:51.373Z,101064.13
2023-03-05T20:36:20.824Z,101058.34
2023-03-05T20:38:48.573Z,101052.81
2023-03-05T20:41:18.007Z,101060.44
2023-03-05T20:43:47.678Z,101046.63
2023-03-05T20:46:17.810Z,101044.97
2023-03-05T20:48:48.020Z,101044.75
2023-03-05T20:51:18.688Z,101050.09
2023-03-05T20:53:47.796Z,101046.19
2023-03-05T20:56:15.586Z,101045.34
2023-03-05T20:58:43.350Z,101037.72
2023-03-05T21:01:11.175Z,101047.00
2023-03-05T21:03:39.213Z,101035.66
2023-03-05T21:06:07.590Z,101033.19
2023-03-05T21:08:35.306Z,101033.59
2023-03-05T21:11:08.135Z,101020.56
2023-03-05T21:13:36.725Z,101015.41
2023-03-05T21:16:07.844Z,101013.56
2023-03-05T21:18:36.031Z,101016.84
2023-03-05T21:21:04.204Z,101009.84
2023-03-05T21:23:31.948Z,101010.88
2023-03-05T21:25:59.926Z,101010.88
2023-03-05T21:28:29.529Z,101009.63
2023-03-05T21:30:57.523Z,101000.56
2023-03-05T21:33:27.277Z,101007.97
2023-03-05T21:35:57.957Z,101002.63
2023-03-05T21:38:29.812Z,100990.25
2023-03-05T21:40:59.939Z,100997.47
2023-03-05T21:43:31.164Z,100993.16
2023-03-05T21:46:01.006Z,100993.16
2023-03-05T21:48:28.994Z,100992.31
2023-03-05T21:50:57.290Z,100988.81
2023-03-05T21:53:25.443Z,100988.00
2023-03-05T21:56:25.348Z,100989.03
2023-03-05T21:58:55.015Z,100981.81
2023-03-05T22:01:22.923Z,100974.00
2023-03-05T22:03:51.561Z,100966.97
2023-03-05T22:06:20.550Z,100970.50
2023-03-05T22:08:48.663Z,100960.81
2023-03-05T22:11:18.254Z,100958.94
2023-03-05T22:13:46.035Z,100958.13
2023-03-05T22:16:22.475Z,100952.16
2023-03-05T22:18:50.240Z,100948.66
2023-03-05T22:21:19.897Z,100947.81
2023-03-05T22:23:47.728Z,100942.69
2023-03-05T22:26:15.490Z,100944.53
2023-03-05T22:28:43.513Z,100945.56
2023-03-05T22:31:11.770Z,100936.69
2023-03-05T22:33:41.232Z,100935.88
2023-03-05T22:36:10.777Z,100936.91
2023-03-05T22:38:38.520Z,100927.63
2023-03-05T22:41:09.278Z,100920.84
2023-03-05T22:43:37.747Z,100922.69
2023-03-05T22:46:12.870Z,100921.03
2023-03-05T22:48:42.249Z,100928.25
2023-03-05T22:51:11.339Z,100919.59
2023-03-05T22:53:39.758Z,100914.25
2023-03-05T22:56:08.503Z,100907.44
2023-03-05T22:58:36.517Z,100899.41
2023-03-05T23:01:04.989Z,100897.13
2023-03-05T23:03:32.789Z,100895.09
2023-03-05T23:06:01.841Z,100889.94
2023-03-05T23:08:29.572Z,100887.47
2023-03-05T23:10:57.286Z,100889.94
2023-03-05T23:13:25.001Z,100892.00
2023-03-05T23:15:52.785Z,100892.00
2023-03-05T23:18:20.514Z,100891.16
2023-03-05T23:20:48.241Z,100884.16
2023-03-05T23:23:17.369Z,100881.69
2023-03-05T23:25:45.029Z,100882.94
2023-03-05T23:28:12.748Z,100884.78
2023-03-05T23:30:40.512Z,100877.78
2023-03-05T23:33:12.053Z,100878.59
2023-03-05T23:35:42.396Z,100882.31
2023-03-05T23:38:13.476Z,100879.00
2023-03-05T23:40:44.945Z,100871.19
2023-03-05T23:43:13.391Z,100872.22
2023-03-05T23:45:42.530Z,100873.25
2023-03-05T23:48:10.601Z,100868.91
2023-03-05T23:50:41.503Z,100867.06
2023-03-05T23:53:10.167Z,100861.91
2023-03-05T23:55:43.059Z,100863.75
2023-03-05T23:58:11.320Z,100865.63
